createdAt,value
2018-12-17T04:01:02.369Z,988.46
2018-12-17T04:02:02.700Z,988.48
2018-12-17T04:03:01.454Z,988.55
2018-12-17T04:04:00.928Z,988.56
2018-12-17T04:05:01.087Z,988.56
2018-12-17T04:06:01.212Z,988.59
2018-12-17T04:07:01.415Z,988.61
2018-12-17T04:08:01.583Z,988.60
2018-12-17T04:09:01.821Z,988.60
2018-12-17T04:10:01.851Z,988.61
2018-12-17T04:11:02.056Z,988.67
2018-12-17T04:12:02.155Z,988.66
2018-12-17T04:13:02.373Z,988.74
2018-12-17T04:14:02.509Z,988.75
2018-12-17T04:15:02.667Z,988.77
2018-12-17T04:16:02.808Z,988.75
2018-12-17T04:17:02.939Z,988.74
2018-12-17T04:18:03.207Z,988.81
2018-12-17T04:19:04.202Z,988.84
2018-12-17T04:20:03.545Z,988.84
2018-12-17T04:21:03.823Z,988.83
2018-12-17T04:22:03.931Z,988.84
2018-12-17T04:23:04.048Z,988.83
2018-12-17T04:24:04.270Z,988.84
2018-12-17T04:25:04.426Z,988.83
2018-12-17T04:26:04.644Z,988.85
2018-12-17T04:27:04.648Z,988.83
2018-12-17T04:28:04.843Z,988.86
2018-12-17T04:29:07.047Z,988.85
2018-12-17T04:30:05.173Z,988.88
2018-12-17T04:31:05.251Z,988.88
2018-12-17T04:32:05.439Z,988.92
2018-12-17T04:33:05.623Z,988.95
2018-12-17T04:34:05.722Z,988.91
2018-12-17T04:35:05.914Z,988.95
2018-12-17T04:36:06.086Z,988.95
2018-12-17T04:37:06.232Z,988.97
2018-12-17T04:38:06.315Z,988.96
2018-12-17T04:39:06.536Z,988.94
2018-12-17T04:40:06.716Z,988.96
2018-12-17T04:41:06.842Z,988.99
2018-12-17T04:42:06.970Z,988.98
2018-12-17T04:43:07.127Z,988.95
2018-12-17T04:44:07.322Z,988.99
2018-12-17T04:45:07.510Z,989.03
2018-12-17T04:46:07.662Z,989.06
2018-12-17T04:47:07.785Z,988.99
2018-12-17T04:48:07.969Z,989.02
2018-12-17T04:49:08.052Z,989.02
2018-12-17T04:50:08.226Z,989.02
2018-12-17T04:51:08.391Z,989.04
2018-12-17T04:52:08.681Z,989.05
2018-12-17T04:53:08.805Z,989.02
2018-12-17T04:54:08.911Z,989.03
2018-12-17T04:55:09.069Z,989.01
2018-12-17T04:56:09.228Z,988.98
2018-12-17T04:57:09.321Z,988.98
2018-12-17T04:58:09.515Z,988.97
2018-12-17T04:59:14.568Z,988.97
2018-12-17T05:00:10.144Z,989.02
2018-12-17T05:01:10.054Z,989.07
2018-12-17T05:02:10.243Z,989.02
2018-12-17T05:03:10.353Z,989.05
2018-12-17T05:04:10.402Z,989.06
2018-12-17T05:05:10.624Z,989.02
2018-12-17T05:06:11.728Z,989.04
2018-12-17T05:07:10.994Z,989.04
2018-12-17T05:08:11.129Z,989.07
2018-12-17T05:09:11.375Z,989.06
2018-12-17T05:10:11.443Z,989.08
2018-12-17T05:11:11.662Z,989.08
2018-12-17T05:12:11.786Z,989.08
2018-12-17T05:13:11.966Z,989.06
2018-12-17T05:14:12.176Z,989.09
2018-12-17T05:15:12.220Z,989.11
2018-12-17T05:16:12.399Z,989.10
2018-12-17T05:17:12.561Z,989.10
2018-12-17T05:18:12.700Z,989.11
2018-12-17T05:19:12.845Z,989.14
2018-12-17T05:20:13.023Z,989.10
2018-12-17T05:21:13.156Z,989.15
2018-12-17T05:22:13.315Z,989.13
2018-12-17T05:23:13.527Z,989.14
2018-12-17T05:24:13.851Z,989.13
2018-12-17T05:25:13.894Z,989.17
2018-12-17T05:26:14.061Z,989.19
2018-12-17T05:27:14.142Z,989.17
2018-12-17T05:28:14.334Z,989.19
2018-12-17T05:29:21.410Z,989.21
2018-12-17T05:30:14.644Z,989.22
2018-12-17T05:31:14.856Z,989.24
2018-12-17T05:32:14.970Z,989.25
2018-12-17T05:33:15.091Z,989.24
2018-12-17T05:34:15.345Z,989.25
2018-12-17T05:35:15.525Z,989.24
2018-12-17T05:36:15.713Z,989.28
2018-12-17T05:37:15.749Z,989.31
2018-12-17T05:38:15.968Z,989.31
2018-12-17T05:39:16.052Z,989.34
2018-12-17T05:40:16.319Z,989.42
2018-12-17T05:41:16.493Z,989.42
2018-12-17T05:42:16.606Z,989.38
2018-12-17T05:43:16.772Z,989.37
2018-12-17T05:44:16.915Z,989.39
2018-12-17T05:45:17.045Z,989.42
2018-12-17T05:46:17.212Z,989.45
2018-12-17T05:47:17.372Z,989.55
2018-12-17T05:48:17.539Z,989.62
2018-12-17T05:49:17.763Z,989.61
2018-12-17T05:50:17.880Z,989.62
2018-12-17T05:51:18.012Z,989.61
2018-12-17T05:52:18.337Z,989.60
2018-12-17T05:53:18.377Z,989.62
2018-12-17T05:54:18.446Z,989.57
2018-12-17T05:55:18.710Z,989.56
2018-12-17T05:56:18.809Z,989.55
2018-12-17T05:57:19.117Z,989.54
2018-12-17T05:58:19.154Z,989.54
2018-12-17T05:59:19.293Z,989.58
2018-12-17T06:00:19.480Z,989.60
2018-12-17T06:01:19.681Z,989.60
2018-12-17T06:02:19.806Z,989.56
2018-12-17T06:03:19.956Z,989.55
2018-12-17T06:04:20.103Z,989.54
2018-12-17T06:05:20.554Z,989.52
2018-12-17T06:06:20.472Z,989.50
2018-12-17T06:07:20.689Z,989.55
2018-12-17T06:08:20.827Z,989.57
2018-12-17T06:09:20.919Z,989.56
2018-12-17T06:10:21.181Z,989.54
2018-12-17T06:11:21.307Z,989.56
2018-12-17T06:12:21.467Z,989.61
2018-12-17T06:13:21.609Z,989.61
2018-12-17T06:14:21.790Z,989.57
2018-12-17T06:15:21.992Z,989.65
2018-12-17T06:16:22.056Z,989.67
2018-12-17T06:17:22.265Z,989.66
2018-12-17T06:18:22.390Z,989.66
2018-12-17T06:19:22.598Z,989.70
2018-12-17T06:20:22.775Z,989.68
2018-12-17T06:21:22.957Z,989.68
2018-12-17T06:22:23.018Z,989.74
2018-12-17T06:23:23.244Z,989.75
2018-12-17T06:24:23.467Z,989.78
2018-12-17T06:25:23.600Z,989.84
2018-12-17T06:26:23.774Z,989.83
2018-12-17T06:27:23.931Z,989.80
2018-12-17T06:28:24.085Z,989.86
2018-12-17T06:29:24.282Z,989.92
2018-12-17T06:30:24.326Z,989.90
2018-12-17T06:31:24.588Z,989.88
2018-12-17T06:32:24.695Z,989.86
2018-12-17T06:33:24.846Z,989.89
2018-12-17T06:34:25.045Z,989.91
2018-12-17T06:35:25.186Z,989.89
2018-12-17T06:36:25.381Z,989.89
2018-12-17T06:37:25.505Z,989.94
2018-12-17T06:38:25.693Z,989.96
2018-12-17T06:39:25.847Z,989.91
2018-12-17T06:40:26.026Z,989.96
2018-12-17T06:41:26.137Z,989.95
2018-12-17T06:42:26.404Z,989.95
2018-12-17T06:43:26.517Z,989.89
2018-12-17T06:44:26.605Z,989.95
2018-12-17T06:45:26.765Z,989.95
2018-12-17T06:46:26.943Z,989.96
2018-12-17T06:47:27.138Z,989.97
2018-12-17T06:48:27.211Z,989.93
2018-12-17T06:49:27.378Z,989.93
2018-12-17T06:50:27.529Z,989.96
2018-12-17T06:51:27.710Z,989.99
2018-12-17T06:52:27.880Z,990.00
2018-12-17T06:53:28.041Z,990.00
2018-12-17T06:54:28.261Z,989.98
2018-12-17T06:55:28.321Z,989.97
2018-12-17T06:56:28.545Z,990.01
2018-12-17T06:57:28.791Z,990.06
2018-12-17T06:58:28.807Z,990.04
2018-12-17T06:59:29.073Z,990.08
2018-12-17T07:00:29.224Z,990.07
2018-12-17T07:01:29.330Z,990.11
2018-12-17T07:02:29.465Z,990.17
2018-12-17T07:03:29.655Z,990.17
2018-12-17T07:04:29.815Z,990.16
2018-12-17T07:05:29.948Z,990.16
2018-12-17T07:08:14.629Z,990.18
2018-12-17T07:09:15.149Z,990.20
2018-12-17T07:10:14.810Z,990.18
2018-12-17T07:11:16.700Z,990.19
2018-12-17T07:12:25.058Z,990.19
2018-12-17T07:13:15.371Z,990.21
2018-12-17T07:14:16.074Z,990.22
2018-12-17T07:15:14.067Z,990.24
2018-12-17T07:16:13.836Z,990.28
2018-12-17T07:17:13.861Z,990.32
2018-12-17T07:18:14.095Z,990.30
2018-12-17T07:19:14.193Z,990.34
2018-12-17T07:20:14.394Z,990.35
2018-12-17T07:21:14.533Z,990.37
2018-12-17T07:22:14.671Z,990.38
2018-12-17T07:23:14.849Z,990.38
2018-12-17T07:24:15.021Z,990.36
2018-12-17T07:25:15.134Z,990.42
2018-12-17T07:26:15.341Z,990.35
2018-12-17T07:27:15.437Z,990.38
2018-12-17T07:28:15.687Z,990.37
2018-12-17T07:29:15.714Z,990.40
2018-12-17T07:30:15.893Z,990.46
2018-12-17T07:31:16.145Z,990.45
2018-12-17T07:32:16.288Z,990.45
2018-12-17T07:33:16.432Z,990.47
2018-12-17T07:34:16.548Z,990.48
2018-12-17T07:35:16.712Z,990.46
2018-12-17T07:36:16.909Z,990.48
2018-12-17T07:37:17.110Z,990.48
2018-12-17T07:38:17.267Z,990.50
2018-12-17T07:39:17.309Z,990.51
2018-12-17T07:40:17.519Z,990.51
2018-12-17T07:41:17.687Z,990.55
2018-12-17T07:42:17.897Z,990.55
2018-12-17T07:43:17.984Z,990.56
2018-12-17T07:44:18.213Z,990.56
2018-12-17T07:45:18.284Z,990.59
2018-12-17T07:46:18.482Z,990.61
2018-12-17T07:47:18.682Z,990.60
2018-12-17T07:48:18.869Z,990.66
2018-12-17T07:49:19.006Z,990.69
2018-12-17T07:50:19.131Z,990.72
2018-12-17T07:51:19.323Z,990.71
2018-12-17T07:52:19.441Z,990.71
2018-12-17T07:53:19.636Z,990.70
2018-12-17T07:54:19.770Z,990.75
2018-12-17T07:55:19.966Z,990.77
2018-12-17T07:56:20.067Z,990.79
2018-12-17T07:57:20.295Z,990.77
2018-12-17T07:58:21.027Z,990.75
2018-12-17T07:59:20.627Z,990.78
2018-12-17T08:00:31.921Z,990.79
2018-12-17T08:01:22.428Z,990.82
2018-12-17T08:02:22.067Z,990.82
2018-12-17T08:03:21.326Z,990.81
2018-12-17T08:04:21.282Z,990.79
2018-12-17T08:05:21.488Z,990.84
2018-12-17T08:06:21.642Z,990.85
2018-12-17T08:07:22.473Z,990.86
2018-12-17T08:08:22.014Z,990.86
2018-12-17T08:09:22.119Z,990.91
2018-12-17T08:10:22.337Z,990.92
2018-12-17T08:11:22.503Z,990.89
2018-12-17T08:12:22.612Z,990.93
2018-12-17T08:13:22.807Z,990.95
2018-12-17T08:14:22.967Z,990.95
2018-12-17T08:15:23.140Z,990.95
2018-12-17T08:16:23.355Z,990.99
2018-12-17T08:17:23.448Z,990.97
2018-12-17T08:18:23.591Z,991.00
2018-12-17T08:19:23.810Z,991.04
2018-12-17T08:20:23.910Z,991.09
2018-12-17T08:21:24.026Z,991.06
2018-12-17T08:22:24.245Z,991.05
2018-12-17T08:23:24.401Z,991.05
2018-12-17T08:24:24.544Z,991.06
2018-12-17T08:25:24.672Z,991.10
2018-12-17T08:26:24.799Z,991.09
2018-12-17T08:27:24.993Z,991.09
2018-12-17T08:28:25.240Z,991.10
2018-12-17T08:29:25.300Z,991.14
2018-12-17T08:30:25.537Z,991.12
2018-12-17T08:31:25.715Z,991.10
2018-12-17T08:32:25.824Z,991.09
2018-12-17T08:33:26.052Z,991.08
2018-12-17T08:34:27.124Z,991.15
2018-12-17T08:35:26.286Z,991.16
2018-12-17T08:36:26.500Z,991.14
2018-12-17T08:37:26.621Z,991.19
2018-12-17T08:38:26.875Z,991.17
2018-12-17T08:39:26.934Z,991.22
2018-12-17T08:40:27.187Z,991.25
2018-12-17T08:41:27.324Z,991.23
2018-12-17T08:42:27.433Z,991.20
2018-12-17T08:43:27.617Z,991.22
2018-12-17T08:44:27.803Z,991.25
2018-12-17T08:45:27.941Z,991.27
2018-12-17T08:46:28.066Z,991.29
2018-12-17T08:47:28.294Z,991.25
2018-12-17T08:48:28.390Z,991.26
2018-12-17T08:49:28.673Z,991.30
2018-12-17T08:50:28.713Z,991.30
2018-12-17T08:51:28.873Z,991.29
2018-12-17T08:52:29.052Z,991.31
2018-12-17T08:53:29.247Z,991.29
2018-12-17T08:54:29.424Z,991.28
2018-12-17T08:55:29.610Z,991.27
2018-12-17T08:56:29.775Z,991.28
2018-12-17T08:57:30.046Z,991.30
2018-12-17T08:58:30.093Z,991.27
2018-12-17T08:59:30.292Z,991.31
2018-12-17T09:00:31.134Z,991.34
2018-12-17T09:01:31.283Z,991.38
2018-12-17T09:02:31.573Z,991.42
2018-12-17T09:03:34.590Z,991.46
2018-12-17T09:05:26.728Z,991.43
2018-12-17T09:06:03.713Z,991.45
2018-12-17T09:06:44.794Z,991.45
2018-12-17T09:07:43.610Z,991.45
2018-12-17T09:08:37.321Z,991.43
2018-12-17T09:09:35.352Z,991.48
2018-12-17T09:10:43.220Z,991.45
2018-12-17T09:11:35.158Z,991.49
2018-12-17T11:03:28.748Z,991.82
2018-12-17T11:04:29.465Z,991.83
2018-12-17T11:05:28.739Z,991.84
2018-12-17T11:06:30.572Z,991.82
2018-12-17T11:07:30.063Z,991.82
2018-12-17T11:08:27.587Z,991.82
2018-12-17T11:09:27.744Z,991.85
2018-12-17T11:10:27.854Z,991.82
2018-12-17T11:11:28.049Z,991.80
2018-12-17T11:12:28.260Z,991.83
2018-12-17T11:13:28.574Z,991.80
2018-12-17T11:18:17.911Z,991.79
2018-12-17T11:19:20.541Z,991.81
2018-12-17T11:20:21.145Z,991.79
2018-12-17T11:38:57.225Z,991.66
2018-12-17T11:39:56.905Z,991.68
2018-12-17T11:43:17.778Z,991.66
2018-12-17T11:45:18.812Z,991.67
2018-12-17T11:46:19.606Z,991.61
2018-12-17T11:59:50.825Z,991.64
2018-12-17T12:02:49.113Z,991.72
2018-12-17T12:04:05.260Z,991.68
2018-12-17T12:07:27.340Z,991.62
2018-12-17T12:08:25.865Z,991.66
2018-12-17T12:09:13.514Z,991.67
2018-12-17T12:10:14.988Z,991.67
2018-12-17T12:11:13.868Z,991.68
2018-12-17T12:12:14.315Z,991.67
2018-12-17T12:13:14.868Z,991.67
2018-12-17T12:14:24.601Z,991.66
2018-12-17T12:15:15.909Z,991.66
2018-12-17T12:16:15.032Z,991.66
2018-12-17T12:17:15.297Z,991.67
2018-12-17T12:18:16.693Z,991.69
2018-12-17T12:19:16.935Z,991.70
2018-12-17T12:20:20.982Z,991.68
2018-12-17T12:21:16.075Z,991.72
2018-12-17T12:22:24.493Z,991.64
2018-12-17T12:23:15.082Z,991.73
2018-12-17T12:27:49.586Z,991.79
2018-12-17T12:28:48.543Z,991.79
2018-12-17T13:00:24.694Z,991.96
2018-12-17T13:07:51.022Z,991.96
2018-12-17T13:08:52.952Z,991.93
2018-12-17T13:09:52.000Z,991.91
2018-12-17T13:10:52.541Z,991.98
2018-12-17T13:11:52.584Z,991.98
2018-12-17T13:12:56.789Z,991.98
2018-12-17T13:13:52.607Z,992.02
2018-12-17T13:49:09.357Z,992.42
2018-12-17T14:33:08.395Z,992.92
2018-12-17T14:35:13.265Z,993.00
2018-12-17T14:36:09.108Z,993.01
2018-12-17T14:38:48.357Z,993.00
2018-12-17T14:40:49.725Z,993.02
2018-12-17T14:41:58.457Z,993.02
2018-12-17T14:42:49.946Z,993.05
2018-12-17T15:13:56.067Z,993.57
2018-12-17T15:14:22.212Z,993.55
2018-12-17T15:15:36.113Z,993.52
2018-12-17T15:17:56.301Z,993.60
2018-12-17T15:18:55.807Z,993.61
2018-12-17T15:20:08.762Z,993.66
2018-12-17T15:20:56.730Z,993.66
2018-12-17T15:22:00.116Z,993.73
2018-12-17T15:53:05.558Z,994.01
2018-12-17T15:54:03.473Z,994.03
2018-12-17T16:28:41.811Z,994.35
2018-12-17T16:29:40.967Z,994.37
2018-12-17T16:30:41.591Z,994.39
2018-12-17T16:31:41.082Z,994.40
2018-12-17T16:32:41.203Z,994.43
2018-12-17T16:33:41.420Z,994.48
2018-12-17T16:34:41.690Z,994.46
2018-12-17T16:35:41.741Z,994.48
2018-12-17T16:36:41.902Z,994.50
2018-12-17T16:37:42.140Z,994.48
2018-12-17T16:38:42.250Z,994.49
2018-12-17T16:39:42.358Z,994.55
2018-12-17T16:40:42.502Z,994.58
2018-12-17T16:41:43.518Z,994.61
2018-12-17T16:42:42.757Z,994.54
2018-12-17T16:43:42.918Z,994.58
2018-12-17T16:44:43.103Z,994.55
2018-12-17T16:45:43.233Z,994.56
2018-12-17T16:46:43.418Z,994.58
2018-12-17T16:47:43.559Z,994.65
2018-12-17T16:48:43.799Z,994.60
2018-12-17T16:49:43.903Z,994.62
2018-12-17T16:50:44.156Z,994.62
2018-12-17T16:51:44.234Z,994.60
2018-12-17T16:52:44.447Z,994.60
2018-12-17T16:53:44.586Z,994.63
2018-12-17T16:54:44.744Z,994.62
2018-12-17T16:55:44.898Z,994.61
2018-12-17T16:56:45.026Z,994.57
2018-12-17T16:57:45.142Z,994.61
2018-12-17T16:58:45.402Z,994.61
2018-12-17T16:59:45.549Z,994.61
2018-12-17T17:00:45.660Z,994.60
2018-12-17T17:01:45.816Z,994.60
2018-12-17T17:02:46.012Z,994.63
2018-12-17T17:03:46.154Z,994.62
2018-12-17T17:04:46.303Z,994.68
2018-12-17T17:05:46.514Z,994.62
2018-12-17T17:06:46.606Z,994.65
2018-12-17T17:07:46.788Z,994.59
2018-12-17T17:08:46.973Z,994.64
2018-12-17T17:09:47.156Z,994.59
2018-12-17T17:10:47.408Z,994.61
2018-12-17T17:11:47.490Z,994.60
2018-12-17T17:12:47.621Z,994.65
2018-12-17T17:13:47.802Z,994.66
2018-12-17T17:14:48.410Z,994.65
2018-12-17T17:15:48.123Z,994.67
2018-12-17T17:16:48.292Z,994.67
2018-12-17T17:17:48.484Z,994.71
2018-12-17T17:18:48.672Z,994.73
2018-12-17T17:19:51.009Z,994.73
2018-12-17T17:20:48.958Z,994.78
2018-12-17T17:21:49.096Z,994.71
2018-12-17T17:22:49.256Z,994.78
2018-12-17T17:23:49.388Z,994.80
2018-12-17T17:24:49.603Z,994.78
2018-12-17T17:25:49.742Z,994.79
2018-12-17T17:26:49.938Z,994.79
2018-12-17T17:27:50.004Z,994.80
2018-12-17T17:28:50.186Z,994.81
2018-12-17T17:29:50.498Z,994.86
2018-12-17T17:30:50.577Z,994.94
2018-12-17T17:31:50.828Z,994.97
2018-12-17T17:32:50.941Z,994.93
2018-12-17T17:33:51.070Z,994.98
2018-12-17T17:34:51.263Z,995.01
2018-12-17T17:35:51.427Z,994.97
2018-12-17T17:36:51.565Z,995.03
2018-12-17T17:37:51.700Z,995.06
2018-12-17T17:38:51.917Z,995.10
2018-12-17T17:39:52.067Z,995.10
2018-12-17T17:40:52.278Z,995.11
2018-12-17T17:41:52.453Z,995.10
2018-12-17T17:42:52.606Z,995.05
2018-12-17T17:43:52.745Z,995.07
2018-12-17T17:44:52.902Z,995.12
2018-12-17T17:45:53.060Z,995.15
2018-12-17T17:46:53.236Z,995.11
2018-12-17T17:47:53.400Z,995.12
2018-12-17T17:48:53.591Z,995.06
2018-12-17T17:49:53.728Z,995.08
2018-12-17T17:50:53.816Z,995.11
2018-12-17T17:51:54.041Z,995.10
2018-12-17T17:52:54.162Z,995.13
2018-12-17T17:53:54.317Z,995.13
2018-12-17T17:54:54.451Z,995.15
2018-12-17T17:55:54.649Z,995.17
2018-12-17T17:56:54.782Z,995.18
2018-12-17T17:57:54.921Z,995.17
2018-12-17T17:58:59.754Z,995.16
2018-12-17T19:29:43.517Z,996.06
2018-12-17T19:36:57.029Z,996.16
